createdAt,value
2022-12-28T00:02:26.483Z,101566.72
2022-12-28T00:07:29.496Z,101547.59
2022-12-28T00:12:33.101Z,101524.94
2022-12-28T00:17:37.720Z,101528.25
2022-12-28T00:22:41.198Z,101537.16
2022-12-28T00:27:44.245Z,101522.34
2022-12-28T00:32:48.513Z,101505.88
2022-12-28T00:37:51.508Z,101500.09
2022-12-28T00:42:54.502Z,101482.47
2022-12-28T00:47:58.841Z,101477.44
2022-12-28T00:53:01.926Z,101469.41
2022-12-28T00:58:05.061Z,101458.69
2022-12-28T01:03:09.462Z,101431.88
2022-12-28T01:08:12.642Z,101430.00
2022-12-28T01:13:15.760Z,101412.03
2022-12-28T01:18:20.176Z,101411.53
2022-12-28T01:23:23.173Z,101410.69
2022-12-28T01:28:26.198Z,101408.69
2022-12-28T01:33:30.525Z,101410.69
2022-12-28T01:38:33.457Z,101400.31
2022-12-28T01:43:42.097Z,101393.13
2022-12-28T01:48:59.717Z,101370.53
2022-12-28T01:54:03.909Z,101370.91
2022-12-28T01:59:07.071Z,101367.81
2022-12-28T02:04:14.066Z,101362.41
2022-12-28T02:09:20.717Z,101354.50
2022-12-28T02:14:24.102Z,101337.75
2022-12-28T02:19:38.221Z,101333.72
2022-12-28T02:25:12.053Z,101321.66
2022-12-28T02:30:18.586Z,101318.25
2022-12-28T02:35:34.527Z,101299.97
2022-12-28T02:40:42.399Z,101289.72
2022-12-28T02:46:05.739Z,101270.66
2022-12-28T02:51:48.723Z,101263.81
2022-12-28T02:56:56.779Z,101263.88
2022-12-28T03:02:15.745Z,101261.47
2022-12-28T03:07:43.812Z,101269.59
2022-12-28T03:12:51.871Z,101266.53
2022-12-28T03:18:20.414Z,101252.84
2022-12-28T03:23:42.652Z,101259.25
2022-12-28T03:29:05.390Z,101257.97
2022-12-28T03:34:15.116Z,101246.25
2022-12-28T03:39:33.534Z,101242.19
2022-12-28T03:44:37.159Z,101226.88
2022-12-28T03:49:42.346Z,101239.63
2022-12-28T03:54:46.292Z,101236.94
2022-12-28T03:59:51.575Z,101218.16
2022-12-28T04:04:56.092Z,101216.84
2022-12-28T04:09:59.532Z,101227.47
2022-12-28T04:15:02.645Z,101218.19
2022-12-28T04:20:09.667Z,101216.63
2022-12-28T04:25:12.691Z,101212.38
2022-12-28T04:30:16.409Z,101200.28
2022-12-28T04:35:20.806Z,101197.09
2022-12-28T04:40:26.070Z,101194.81
2022-12-28T04:45:29.184Z,101200.22
2022-12-28T04:50:33.633Z,101191.91
2022-12-28T04:55:36.625Z,101183.31
2022-12-28T05:00:39.772Z,101180.03
2022-12-28T05:05:44.143Z,101180.28
2022-12-28T05:10:47.112Z,101165.56
2022-12-28T05:15:50.232Z,101174.53
2022-12-28T05:21:01.739Z,101171.28
2022-12-28T05:26:06.037Z,101165.97
2022-12-28T05:31:12.324Z,101161.84
2022-12-28T05:36:19.631Z,101144.13
2022-12-28T05:41:24.635Z,101157.47
2022-12-28T05:46:32.304Z,101159.28
2022-12-28T05:51:39.546Z,101148.16
2022-12-28T05:56:42.802Z,101145.84
2022-12-28T06:01:45.915Z,101147.00
2022-12-28T06:06:50.805Z,101134.06
2022-12-28T06:11:53.783Z,101131.56
2022-12-28T06:16:56.841Z,101138.59
2022-12-28T06:22:01.295Z,101130.97
2022-12-28T06:27:04.261Z,101108.53
2022-12-28T06:32:07.403Z,101126.19
2022-12-28T06:37:11.821Z,101122.00
2022-12-28T06:42:14.755Z,101114.22
2022-12-28T06:47:18.742Z,101116.91
2022-12-28T06:52:23.383Z,101144.91
2022-12-28T06:57:26.372Z,101116.19
2022-12-28T07:02:29.560Z,101115.44
2022-12-28T07:07:34.046Z,101101.44
2022-12-28T07:12:37.200Z,101095.59
2022-12-28T07:17:40.119Z,101103.63
2022-12-28T07:22:44.615Z,101092.38
2022-12-28T07:27:47.601Z,101099.34
2022-12-28T07:32:50.645Z,101119.63
2022-12-28T07:37:55.295Z,101099.56
2022-12-28T07:43:01.129Z,101120.53
2022-12-28T07:48:04.248Z,101113.63
2022-12-28T07:53:08.637Z,101109.44
2022-12-28T07:58:11.646Z,101102.59
2022-12-28T08:03:14.779Z,101102.53
2022-12-28T08:08:19.168Z,101094.03
2022-12-28T08:13:22.172Z,101100.28
2022-12-28T08:18:25.181Z,101092.50
2022-12-28T08:23:29.905Z,101096.91
2022-12-28T08:28:32.902Z,101101.31
2022-12-28T08:33:36.420Z,101094.41
2022-12-28T08:38:44.221Z,101101.38
2022-12-28T08:43:47.942Z,101097.88
2022-12-28T08:48:52.078Z,101089.19
2022-12-28T08:53:56.510Z,101095.41
2022-12-28T08:59:00.386Z,101086.03
2022-12-28T09:04:03.884Z,101084.50
2022-12-28T09:09:11.679Z,101083.00
2022-12-28T09:14:22.519Z,101079.69
2022-12-28T09:19:26.108Z,101080.66
2022-12-28T09:24:30.508Z,101074.59
2022-12-28T09:29:33.408Z,101073.75
2022-12-28T09:34:37.873Z,101079.22
2022-12-28T09:39:42.712Z,101078.44
2022-12-28T09:44:53.717Z,101086.47
2022-12-28T09:50:12.758Z,101076.78
2022-12-28T09:55:19.367Z,101082.03
2022-12-28T10:00:24.512Z,101075.81
2022-12-28T10:05:28.093Z,101068.84
2022-12-28T10:10:32.968Z,101074.06
2022-12-28T10:15:36.058Z,101062.16
2022-12-28T10:20:40.978Z,101071.59
2022-12-28T10:25:45.925Z,101060.09
2022-12-28T10:31:03.077Z,101067.69
2022-12-28T10:36:06.579Z,101056.16
2022-12-28T10:41:14.492Z,101055.19
2022-12-28T10:46:20.179Z,101051.59
2022-12-28T10:51:25.626Z,101048.91
2022-12-28T10:56:30.979Z,101044.56
2022-12-28T11:01:34.121Z,101034.00
2022-12-28T11:06:51.524Z,101031.38
2022-12-28T11:11:58.140Z,101020.09
2022-12-28T11:17:15.448Z,101016.56
2022-12-28T11:22:24.415Z,101009.47
2022-12-28T11:27:29.732Z,101016.38
2022-12-28T11:32:39.290Z,101009.31
2022-12-28T11:37:50.114Z,100988.31
2022-12-28T11:42:58.380Z,101004.94
2022-12-28T11:48:37.061Z,100993.53
2022-12-28T11:54:00.078Z,100978.44
2022-12-28T11:59:20.750Z,100978.44
2022-12-28T12:04:41.716Z,100955.81
2022-12-28T12:09:46.781Z,100950.63
2022-12-28T12:14:58.526Z,100947.31
2022-12-28T12:20:06.851Z,100930.94
2022-12-28T12:25:19.502Z,100910.06
2022-12-28T12:30:24.938Z,100909.34
2022-12-28T12:35:35.108Z,100896.91
2022-12-28T12:41:06.101Z,100889.19
2022-12-28T12:46:30.321Z,100879.91
2022-12-28T12:51:40.994Z,100866.34
2022-12-28T12:56:49.772Z,100864.91
2022-12-28T13:01:59.977Z,100851.09
2022-12-28T13:07:05.834Z,100838.03
2022-12-28T13:12:15.841Z,100824.94
2022-12-28T13:17:22.919Z,100813.63
2022-12-28T13:22:30.743Z,100795.25
2022-12-28T13:27:36.581Z,100798.72
2022-12-28T13:32:52.227Z,100773.19
2022-12-28T13:38:03.757Z,100760.31
2022-12-28T13:43:33.273Z,100746.50
2022-12-28T13:48:42.716Z,100730.13
2022-12-28T13:53:48.895Z,100723.38
2022-12-28T13:58:55.620Z,100714.56
2022-12-28T14:04:42.469Z,100681.41
2022-12-28T14:09:27.937Z,100671.88
2022-12-28T14:14:31.275Z,100677.25
2022-12-28T14:19:36.489Z,100671.09
2022-12-28T14:24:59.577Z,100661.66
2022-12-28T14:30:03.022Z,100646.75
2022-12-28T14:35:16.776Z,100624.78
2022-12-28T14:40:28.131Z,100620.09
2022-12-28T14:46:05.039Z,100622.53
2022-12-28T14:51:25.654Z,100604.97
2022-12-28T14:56:35.905Z,100609.28
2022-12-28T15:01:43.290Z,100596.19
2022-12-28T15:06:48.782Z,100581.25
2022-12-28T15:12:09.891Z,100564.66
2022-12-28T15:17:14.835Z,100567.19
2022-12-28T15:22:19.764Z,100560.22
2022-12-28T15:27:22.769Z,100554.91
2022-12-28T15:32:25.864Z,100545.03
2022-12-28T15:37:30.211Z,100545.50
2022-12-28T15:42:38.227Z,100534.75
2022-12-28T15:47:43.486Z,100524.81
2022-12-28T15:52:47.836Z,100515.00
2022-12-28T15:57:50.798Z,100510.38
2022-12-28T16:02:55.410Z,100489.19
2022-12-28T16:07:59.983Z,100484.66
2022-12-28T16:13:02.977Z,100467.91
2022-12-28T16:18:06.033Z,100449.50
2022-12-28T16:23:11.019Z,100448.50
2022-12-28T16:28:15.008Z,100435.28
2022-12-28T16:33:18.001Z,100427.28
2022-12-28T16:38:25.193Z,100415.91
2022-12-28T16:43:28.256Z,100413.16
2022-12-28T16:48:31.154Z,100406.22
2022-12-28T16:53:37.872Z,100396.50
2022-12-28T16:58:44.985Z,100391.22
2022-12-28T17:03:50.594Z,100379.00
2022-12-28T17:08:54.897Z,100364.16
2022-12-28T17:14:02.354Z,100358.91
2022-12-28T17:19:05.683Z,100354.50
2022-12-28T17:24:10.387Z,100344.09
2022-12-28T17:29:13.353Z,100326.72
2022-12-28T17:34:16.884Z,100329.34
2022-12-28T17:39:21.405Z,100316.13
2022-12-28T17:44:24.362Z,100296.97
2022-12-28T17:49:28.040Z,100299.53
2022-12-28T17:54:32.930Z,100296.97
2022-12-28T17:59:35.991Z,100290.00
2022-12-28T18:04:39.370Z,100279.47
2022-12-28T18:09:43.669Z,100291.75
2022-12-28T18:14:46.659Z,100286.50
2022-12-28T18:19:49.803Z,100275.19
2022-12-28T18:24:54.623Z,100272.56
2022-12-28T18:29:59.327Z,100265.59
2022-12-28T18:35:02.374Z,100253.28
2022-12-28T18:40:08.644Z,100257.84
2022-12-28T18:45:12.208Z,100253.66
2022-12-28T18:50:15.727Z,100249.28
2022-12-28T18:55:22.368Z,100246.84
2022-12-28T19:00:26.834Z,100239.09
2022-12-28T19:05:29.773Z,100243.66
2022-12-28T19:10:34.430Z,100246.38
2022-12-28T19:15:37.873Z,100241.31
2022-12-28T19:20:42.392Z,100237.97
2022-12-28T19:25:46.816Z,100227.59
2022-12-28T19:30:51.483Z,100235.66
2022-12-28T19:35:54.469Z,100218.25
2022-12-28T19:41:03.803Z,100223.53
2022-12-28T19:46:09.327Z,100213.94
2022-12-28T19:51:12.751Z,100209.72
2022-12-28T19:56:18.223Z,100209.78
2022-12-28T20:01:24.940Z,100189.03
2022-12-28T20:06:31.050Z,100192.56
2022-12-28T20:11:35.536Z,100191.88
2022-12-28T20:16:38.524Z,100196.50
2022-12-28T20:21:42.521Z,100214.25
2022-12-28T20:26:47.050Z,100198.66
2022-12-28T20:31:50.940Z,100192.69
2022-12-28T20:36:54.269Z,100194.53
2022-12-28T20:42:18.638Z,100189.44
2022-12-28T20:47:21.727Z,100192.19
2022-12-28T20:52:24.737Z,100186.94
2022-12-28T20:57:29.206Z,100203.59
2022-12-28T21:02:32.297Z,100182.84
2022-12-28T21:07:35.410Z,100173.31
2022-12-28T21:12:39.804Z,100161.19
2022-12-28T21:17:42.787Z,100144.63
2022-12-28T21:22:45.807Z,100162.09
2022-12-28T21:27:50.461Z,100147.09
2022-12-28T21:32:54.102Z,100145.34
2022-12-28T21:37:57.109Z,100124.38
2022-12-28T21:43:01.438Z,100137.69
2022-12-28T21:48:04.863Z,100128.00
2022-12-28T21:53:07.946Z,100113.03
2022-12-28T21:58:12.334Z,100115.59
2022-12-28T22:03:32.607Z,100115.75
2022-12-28T22:08:53.892Z,100095.69
2022-12-28T22:13:58.289Z,100103.03
2022-12-28T22:19:03.055Z,100104.03
2022-12-28T22:24:07.052Z,100099.69
2022-12-28T22:29:11.468Z,100088.41
2022-12-28T22:34:14.460Z,100088.50
2022-12-28T22:39:17.508Z,100094.69
2022-12-28T22:44:21.909Z,100068.25
2022-12-28T22:49:24.925Z,100069.88
2022-12-28T22:54:30.608Z,100062.25
2022-12-28T22:59:34.993Z,100048.34
2022-12-28T23:04:38.245Z,100047.59
2022-12-28T23:09:41.253Z,100053.00
2022-12-28T23:15:02.912Z,100046.06
2022-12-28T23:20:24.111Z,100040.94
2022-12-28T23:25:45.813Z,100033.13
2022-12-28T23:30:51.764Z,100007.81
2022-12-28T23:35:54.792Z,100007.03
2022-12-28T23:41:14.317Z,100007.13
2022-12-28T23:46:18.846Z,99989.72
2022-12-28T23:51:21.857Z,99996.81
2022-12-28T23:56:25.847Z,99984.50
